sensor_id;sensor_type;location;lat;lon;timestamp;pressure;altitude;pressure_sealevel;temperature;humidity
73842;BME280;62184;52.006;5.924;2022-08-03T00:00:24;100759.06;;;20.83;61.73
73842;BME280;62184;52.006;5.924;2022-08-03T00:02:51;100760.25;;;20.79;61.79
73842;BME280;62184;52.006;5.924;2022-08-03T00:05:17;100767.59;;;20.77;61.67
73842;BME280;62184;52.006;5.924;2022-08-03T00:07:43;100762.31;;;20.76;61.90
73842;BME280;62184;52.006;5.924;2022-08-03T00:10:10;100764.25;;;20.74;61.75
73842;BME280;62184;52.006;5.924;2022-08-03T00:12:38;100758.16;;;20.70;62.27
73842;BME280;62184;52.006;5.924;2022-08-03T00:15:05;100769.09;;;20.69;62.37
73842;BME280;62184;52.006;5.924;2022-08-03T00:17:35;100762.16;;;20.65;62.46
73842;BME280;62184;52.006;5.924;2022-08-03T00:20:01;100755.09;;;20.62;62.57
73842;BME280;62184;52.006;5.924;2022-08-03T00:22:28;100758.03;;;20.59;62.85
73842;BME280;62184;52.006;5.924;2022-08-03T00:24:55;100765.41;;;20.57;62.53
73842;BME280;62184;52.006;5.924;2022-08-03T00:27:21;100762.88;;;20.54;62.70
73842;BME280;62184;52.006;5.924;2022-08-03T00:29:47;100768.41;;;20.52;63.24
73842;BME280;62184;52.006;5.924;2022-08-03T00:32:14;100765.03;;;20.49;63.18
73842;BME280;62184;52.006;5.924;2022-08-03T00:34:42;100759.81;;;20.46;63.54
73842;BME280;62184;52.006;5.924;2022-08-03T00:37:09;100765.44;;;20.43;63.37
73842;BME280;62184;52.006;5.924;2022-08-03T00:39:35;100766.53;;;20.40;63.16
73842;BME280;62184;52.006;5.924;2022-08-03T00:42:02;100763.13;;;20.37;63.26
73842;BME280;62184;52.006;5.924;2022-08-03T00:44:29;100757.06;;;20.33;63.71
73842;BME280;62184;52.006;5.924;2022-08-03T00:46:56;100753.69;;;20.30;63.76
73842;BME280;62184;52.006;5.924;2022-08-03T00:49:23;100752.16;;;20.26;63.70
73842;BME280;62184;52.006;5.924;2022-08-03T00:51:52;100754.00;;;20.25;64.29
73842;BME280;62184;52.006;5.924;2022-08-03T00:54:18;100745.97;;;20.24;64.17
73842;BME280;62184;52.006;5.924;2022-08-03T00:56:46;100746.06;;;20.22;63.94
73842;BME280;62184;52.006;5.924;2022-08-03T00:59:13;100741.69;;;20.19;64.26
73842;BME280;62184;52.006;5.924;2022-08-03T01:01:40;100742.78;;;20.17;64.37
73842;BME280;62184;52.006;5.924;2022-08-03T01:04:07;100748.38;;;20.14;64.24
73842;BME280;62184;52.006;5.924;2022-08-03T01:06:42;100736.66;;;20.13;64.83
73842;BME280;62184;52.006;5.924;2022-08-03T01:09:22;100742.38;;;20.09;64.63
73842;BME280;62184;52.006;5.924;2022-08-03T01:12:02;100738.03;;;20.06;65.04
73842;BME280;62184;52.006;5.924;2022-08-03T01:14:38;100731.91;;;20.03;64.66
73842;BME280;62184;52.006;5.924;2022-08-03T01:17:13;100740.28;;;20.00;65.29
73842;BME280;62184;52.006;5.924;2022-08-03T01:19:51;100730.50;;;19.97;65.10
73842;BME280;62184;52.006;5.924;2022-08-03T01:22:43;100737.84;;;19.95;66.13
73842;BME280;62184;52.006;5.924;2022-08-03T01:25:35;100736.31;;;19.91;65.87
73842;BME280;62184;52.006;5.924;2022-08-03T01:28:24;100737.38;;;19.89;66.05
73842;BME280;62184;52.006;5.924;2022-08-03T01:31:06;100727.59;;;19.86;65.74
73842;BME280;62184;52.006;5.924;2022-08-03T01:33:37;100733.13;;;19.84;65.71
73842;BME280;62184;52.006;5.924;2022-08-03T01:36:10;100733.25;;;19.83;66.24
73842;BME280;62184;52.006;5.924;2022-08-03T01:38:42;100729.84;;;19.79;66.23
73842;BME280;62184;52.006;5.924;2022-08-03T01:41:18;100735.38;;;19.78;66.03
73842;BME280;62184;52.006;5.924;2022-08-03T01:43:47;100733.75;;;19.75;66.21
73842;BME280;62184;52.006;5.924;2022-08-03T01:46:20;100728.41;;;19.74;66.31
73842;BME280;62184;52.006;5.924;2022-08-03T01:48:48;100735.69;;;19.73;66.24
73842;BME280;62184;52.006;5.924;2022-08-03T01:51:17;100726.78;;;19.71;66.56
73842;BME280;62184;52.006;5.924;2022-08-03T01:53:47;100725.13;;;19.69;66.63
73842;BME280;62184;52.006;5.924;2022-08-03T01:56:16;100727.06;;;19.67;66.49
73842;BME280;62184;52.006;5.924;2022-08-03T01:58:45;100716.25;;;19.67;66.41
73842;BME280;62184;52.006;5.924;2022-08-03T02:01:15;100729.78;;;19.67;66.48
73842;BME280;62184;52.006;5.924;2022-08-03T02:03:48;100721.06;;;19.62;66.79
73842;BME280;62184;52.006;5.924;2022-08-03T02:06:19;100718.53;;;19.59;66.81
73842;BME280;62184;52.006;5.924;2022-08-03T02:08:48;100725.91;;;19.57;67.08
73842;BME280;62184;52.006;5.924;2022-08-03T02:11:18;100717.09;;;19.53;67.15
73842;BME280;62184;52.006;5.924;2022-08-03T02:13:45;100726.28;;;19.51;67.23
73842;BME280;62184;52.006;5.924;2022-08-03T02:16:19;100714.63;;;19.50;67.49
73842;BME280;62184;52.006;5.924;2022-08-03T02:18:48;100720.22;;;19.47;67.34
73842;BME280;62184;52.006;5.924;2022-08-03T02:21:16;100716.63;;;19.47;67.40
73842;BME280;62184;52.006;5.924;2022-08-03T02:23:44;100723.78;;;19.48;67.58
73842;BME280;62184;52.006;5.924;2022-08-03T02:26:14;100717.50;;;19.47;67.82
73842;BME280;62184;52.006;5.924;2022-08-03T02:28:46;100714.00;;;19.45;67.81
73842;BME280;62184;52.006;5.924;2022-08-03T02:31:22;100716.72;;;19.45;67.51
73842;BME280;62184;52.006;5.924;2022-08-03T02:33:53;100719.44;;;19.45;68.00
73842;BME280;62184;52.006;5.924;2022-08-03T02:36:26;100719.44;;;19.45;67.53
73842;BME280;62184;52.006;5.924;2022-08-03T02:38:58;100711.31;;;19.45;67.87
73842;BME280;62184;52.006;5.924;2022-08-03T02:41:29;100708.69;;;19.43;68.12
73842;BME280;62184;52.006;5.924;2022-08-03T02:44:03;100707.81;;;19.43;68.04
73842;BME280;62184;52.006;5.924;2022-08-03T02:46:38;100706.94;;;19.42;68.41
73842;BME280;62184;52.006;5.924;2022-08-03T02:49:09;100705.31;;;19.40;68.47
73842;BME280;62184;52.006;5.924;2022-08-03T02:51:38;100707.16;;;19.39;68.08
73842;BME280;62184;52.006;5.924;2022-08-03T02:54:08;100699.13;;;19.38;68.06
73842;BME280;62184;52.006;5.924;2022-08-03T02:56:36;100700.97;;;19.37;68.54
73842;BME280;62184;52.006;5.924;2022-08-03T02:59:05;100693.81;;;19.36;68.81
73842;BME280;62184;52.006;5.924;2022-08-03T03:01:35;100692.94;;;19.36;68.40
73842;BME280;62184;52.006;5.924;2022-08-03T03:04:04;100704.72;;;19.35;68.92
73842;BME280;62184;52.006;5.924;2022-08-03T03:06:32;100696.69;;;19.33;68.77
73842;BME280;62184;52.006;5.924;2022-08-03T03:09:00;100696.78;;;19.32;68.71
73842;BME280;62184;52.006;5.924;2022-08-03T03:11:28;100697.75;;;19.31;68.84
73842;BME280;62184;52.006;5.924;2022-08-03T03:13:56;100697.75;;;19.31;68.71
73842;BME280;62184;52.006;5.924;2022-08-03T03:16:25;100701.41;;;19.30;69.16
73842;BME280;62184;52.006;5.924;2022-08-03T03:18:56;100704.22;;;19.28;69.31
73842;BME280;62184;52.006;5.924;2022-08-03T03:21:25;100700.72;;;19.26;69.29
73842;BME280;62184;52.006;5.924;2022-08-03T03:23:54;100706.16;;;19.26;69.37
73842;BME280;62184;52.006;5.924;2022-08-03T03:26:20;100697.06;;;19.27;68.97
73842;BME280;62184;52.006;5.924;2022-08-03T03:28:47;100698.97;;;19.25;68.96
73842;BME280;62184;52.006;5.924;2022-08-03T03:31:14;100686.53;;;19.23;69.02
73842;BME280;62184;52.006;5.924;2022-08-03T03:33:41;100693.69;;;19.24;69.88
73842;BME280;62184;52.006;5.924;2022-08-03T03:36:10;100685.75;;;19.21;69.51
73842;BME280;62184;52.006;5.924;2022-08-03T03:38:37;100687.59;;;19.20;69.60
73842;BME280;62184;52.006;5.924;2022-08-03T03:41:03;100687.59;;;19.20;69.85
73842;BME280;62184;52.006;5.924;2022-08-03T03:43:30;100696.66;;;19.19;69.76
73842;BME280;62184;52.006;5.924;2022-08-03T03:45:57;100686.81;;;19.18;69.55
73842;BME280;62184;52.006;5.924;2022-08-03T03:48:24;100698.72;;;19.16;70.04
73842;BME280;62184;52.006;5.924;2022-08-03T03:50:51;100691.56;;;19.15;69.76
73842;BME280;62184;52.006;5.924;2022-08-03T03:53:21;100690.69;;;19.14;70.28
73842;BME280;62184;52.006;5.924;2022-08-03T03:55:47;100686.22;;;19.13;70.38
73842;BME280;62184;52.006;5.924;2022-08-03T03:58:14;100696.97;;;19.15;70.39
73842;BME280;62184;52.006;5.924;2022-08-03T04:00:40;100693.38;;;19.14;69.98
73842;BME280;62184;52.006;5.924;2022-08-03T04:03:09;100693.38;;;19.14;70.54
73842;BME280;62184;52.006;5.924;2022-08-03T04:05:35;100694.34;;;19.13;70.42
73842;BME280;62184;52.006;5.924;2022-08-03T04:08:05;100697.06;;;19.13;70.26
73842;BME280;62184;52.006;5.924;2022-08-03T04:10:38;100695.22;;;19.14;70.25
73842;BME280;62184;52.006;5.924;2022-08-03T04:13:10;100694.34;;;19.13;70.56
73842;BME280;62184;52.006;5.924;2022-08-03T04:15:41;100699.78;;;19.13;70.53
73842;BME280;62184;52.006;5.924;2022-08-03T04:18:11;100704.13;;;19.16;70.76
73842;BME280;62184;52.006;5.924;2022-08-03T04:20:43;100696.75;;;19.18;70.99
73842;BME280;62184;52.006;5.924;2022-08-03T04:23:13;100691.25;;;19.19;70.49
73842;BME280;62184;52.006;5.924;2022-08-03T04:25:48;100701.13;;;19.20;70.62
73842;BME280;62184;52.006;5.924;2022-08-03T04:28:19;100702.78;;;19.23;70.52
73842;BME280;62184;52.006;5.924;2022-08-03T04:30:48;100701.69;;;19.25;70.94
73842;BME280;62184;52.006;5.924;2022-08-03T04:33:18;100710.59;;;19.27;70.73
73842;BME280;62184;52.006;5.924;2022-08-03T04:35:46;100690.50;;;19.31;70.52
73842;BME280;62184;52.006;5.924;2022-08-03T04:38:16;100696.59;;;19.35;71.09
73842;BME280;62184;52.006;5.924;2022-08-03T04:40:47;100698.34;;;19.36;70.96
73842;BME280;62184;52.006;5.924;2022-08-03T04:43:17;100699.91;;;19.40;70.59
73842;BME280;62184;52.006;5.924;2022-08-03T04:45:46;100703.28;;;19.43;70.47
73842;BME280;62184;52.006;5.924;2022-08-03T04:48:16;100705.69;;;19.48;70.40
73842;BME280;62184;52.006;5.924;2022-08-03T04:50:42;100708.19;;;19.51;70.30
73842;BME280;62184;52.006;5.924;2022-08-03T04:53:09;100707.13;;;19.54;70.38
73842;BME280;62184;52.006;5.924;2022-08-03T04:55:36;100706.00;;;19.58;70.23
73842;BME280;62184;52.006;5.924;2022-08-03T04:58:05;100710.31;;;19.60;70.50
73842;BME280;62184;52.006;5.924;2022-08-03T05:00:31;100714.69;;;19.63;69.99
73842;BME280;62184;52.006;5.924;2022-08-03T05:02:57;100710.03;;;19.65;70.56
73842;BME280;62184;52.006;5.924;2022-08-03T05:05:24;100718.94;;;19.67;69.82
73842;BME280;62184;52.006;5.924;2022-08-03T05:07:51;100719.59;;;19.70;70.01
73842;BME280;62184;52.006;5.924;2022-08-03T05:10:17;100721.25;;;19.73;70.29
73842;BME280;62184;52.006;5.924;2022-08-03T05:12:44;100729.28;;;19.74;69.82
73842;BME280;62184;52.006;5.924;2022-08-03T05:15:15;100723.75;;;19.76;70.22
73842;BME280;62184;52.006;5.924;2022-08-03T05:17:41;100727.31;;;19.76;69.77
73842;BME280;62184;52.006;5.924;2022-08-03T05:20:09;100730.81;;;19.78;69.77
73842;BME280;62184;52.006;5.924;2022-08-03T05:22:36;100732.47;;;19.81;69.90
73842;BME280;62184;52.006;5.924;2022-08-03T05:25:03;100728.69;;;19.83;69.64
73842;BME280;62184;52.006;5.924;2022-08-03T05:27:30;100733.03;;;19.86;69.56
73842;BME280;62184;52.006;5.924;2022-08-03T05:29:57;100731.97;;;19.89;69.46
73842;BME280;62184;52.006;5.924;2022-08-03T05:32:26;100731.78;;;19.92;69.41
73842;BME280;62184;52.006;5.924;2022-08-03T05:34:52;100726.13;;;19.95;68.85
73842;BME280;62184;52.006;5.924;2022-08-03T05:37:18;100727.88;;;19.96;69.11
73842;BME280;62184;52.006;5.924;2022-08-03T05:39:45;100719.66;;;19.97;69.04
73842;BME280;62184;52.006;5.924;2022-08-03T05:42:14;100730.19;;;20.02;68.64
73842;BME280;62184;52.006;5.924;2022-08-03T05:44:40;100730.88;;;20.05;68.88
73842;BME280;62184;52.006;5.924;2022-08-03T05:47:07;100729.78;;;20.08;68.47
73842;BME280;62184;52.006;5.924;2022-08-03T05:49:36;100730.66;;;20.08;68.47
73842;BME280;62184;52.006;5.924;2022-08-03T05:52:03;100726.00;;;20.10;68.88
73842;BME280;62184;52.006;5.924;2022-08-03T05:54:29;100726.88;;;20.11;68.73
73842;BME280;62184;52.006;5.924;2022-08-03T05:56:56;100733.16;;;20.11;68.83
73842;BME280;62184;52.006;5.924;2022-08-03T05:59:22;100735.78;;;20.13;68.37
73842;BME280;62184;52.006;5.924;2022-08-03T06:01:48;100741.88;;;20.16;68.69
73842;BME280;62184;52.006;5.924;2022-08-03T06:04:15;100732.59;;;20.20;68.72
73842;BME280;62184;52.006;5.924;2022-08-03T06:06:44;100737.81;;;20.24;68.13
73842;BME280;62184;52.006;5.924;2022-08-03T06:09:10;100742.91;;;20.28;68.03
73842;BME280;62184;52.006;5.924;2022-08-03T06:11:36;100745.44;;;20.31;68.20
73842;BME280;62184;52.006;5.924;2022-08-03T06:14:03;100746.97;;;20.35;68.09
73842;BME280;62184;52.006;5.924;2022-08-03T06:16:30;100742.31;;;20.37;68.00
73842;BME280;62184;52.006;5.924;2022-08-03T06:18:56;100749.38;;;20.40;67.87
73842;BME280;62184;52.006;5.924;2022-08-03T06:21:22;100747.44;;;20.42;68.03
73842;BME280;62184;52.006;5.924;2022-08-03T06:23:51;100748.97;;;20.46;67.99
73842;BME280;62184;52.006;5.924;2022-08-03T06:26:18;100758.66;;;20.50;67.45
73842;BME280;62184;52.006;5.924;2022-08-03T06:28:44;100754.84;;;20.52;67.70
73842;BME280;62184;52.006;5.924;2022-08-03T06:31:11;100753.00;;;20.53;67.58
73842;BME280;62184;52.006;5.924;2022-08-03T06:33:37;100760.94;;;20.56;67.32
73842;BME280;62184;52.006;5.924;2022-08-03T06:36:04;100759.53;;;20.63;67.32
73842;BME280;62184;52.006;5.924;2022-08-03T06:38:31;100768.03;;;20.71;67.61
73842;BME280;62184;52.006;5.924;2022-08-03T06:41:00;100770.31;;;20.77;67.04
73842;BME280;62184;52.006;5.924;2022-08-03T06:43:26;100763.81;;;20.80;67.37
73842;BME280;62184;52.006;5.924;2022-08-03T06:45:53;100762.53;;;20.85;67.29
73842;BME280;62184;52.006;5.924;2022-08-03T06:48:19;100767.41;;;20.93;66.88
73842;BME280;62184;52.006;5.924;2022-08-03T06:50:45;100770.66;;;21.00;66.43
73842;BME280;62184;52.006;5.924;2022-08-03T06:53:12;100765.84;;;21.03;66.24
73842;BME280;62184;52.006;5.924;2022-08-03T06:55:38;100762.59;;;21.11;66.03
73842;BME280;62184;52.006;5.924;2022-08-03T06:58:07;100769.22;;;21.19;65.98
73842;BME280;62184;52.006;5.924;2022-08-03T07:00:33;100766.53;;;21.32;66.17
73842;BME280;62184;52.006;5.924;2022-08-03T07:03:00;100772.38;;;21.51;65.55
73842;BME280;62184;52.006;5.924;2022-08-03T07:05:26;100771.16;;;21.68;65.35
73842;BME280;62184;52.006;5.924;2022-08-03T07:07:54;100761.31;;;21.80;65.16
73842;BME280;62184;52.006;5.924;2022-08-03T07:10:20;100766.06;;;21.89;64.47
73842;BME280;62184;52.006;5.924;2022-08-03T07:12:47;100761.91;;;21.96;64.32
73842;BME280;62184;52.006;5.924;2022-08-03T07:15:16;100761.13;;;22.06;63.95
73842;BME280;62184;52.006;5.924;2022-08-03T07:17:42;100756.00;;;22.15;63.44
73842;BME280;62184;52.006;5.924;2022-08-03T07:20:09;100765.63;;;22.31;63.41
73842;BME280;62184;52.006;5.924;2022-08-03T07:22:36;100761.56;;;22.50;62.88
73842;BME280;62184;52.006;5.924;2022-08-03T07:25:04;100766.69;;;22.65;62.96
73842;BME280;62184;52.006;5.924;2022-08-03T07:27:31;100771.81;;;22.81;62.79
73842;BME280;62184;52.006;5.924;2022-08-03T07:29:57;100772.16;;;23.00;61.75
73842;BME280;62184;52.006;5.924;2022-08-03T07:32:26;100770.94;;;23.15;61.27
73842;BME280;62184;52.006;5.924;2022-08-03T07:34:53;100771.13;;;23.25;61.13
73842;BME280;62184;52.006;5.924;2022-08-03T07:37:19;100772.75;;;23.39;60.96
73842;BME280;62184;52.006;5.924;2022-08-03T07:39:46;100781.81;;;23.50;60.54
73842;BME280;62184;52.006;5.924;2022-08-03T07:42:12;100770.91;;;23.62;60.26
73842;BME280;62184;52.006;5.924;2022-08-03T07:44:39;100769.53;;;23.78;60.02
73842;BME280;62184;52.006;5.924;2022-08-03T07:47:05;100769.19;;;23.94;59.83
73842;BME280;62184;52.006;5.924;2022-08-03T07:49:38;100767.56;;;24.03;58.72
73842;BME280;62184;52.006;5.924;2022-08-03T07:52:05;100774.91;;;24.02;58.61
73842;BME280;62184;52.006;5.924;2022-08-03T07:54:31;100775.63;;;24.04;58.58
73842;BME280;62184;52.006;5.924;2022-08-03T07:56:57;100774.41;;;24.08;58.53
73842;BME280;62184;52.006;5.924;2022-08-03T07:59:24;100774.88;;;24.13;58.27
73842;BME280;62184;52.006;5.924;2022-08-03T08:01:50;100773.66;;;24.17;57.84
73842;BME280;62184;52.006;5.924;2022-08-03T08:04:16;100763.69;;;24.27;58.16
73842;BME280;62184;52.006;5.924;2022-08-03T08:06:45;100777.16;;;24.51;57.95
73842;BME280;62184;52.006;5.924;2022-08-03T08:09:12;100774.38;;;24.74;57.04
73842;BME280;62184;52.006;5.924;2022-08-03T08:11:39;100784.28;;;24.86;56.50
73842;BME280;62184;52.006;5.924;2022-08-03T08:14:05;100773.41;;;24.95;56.74
73842;BME280;62184;52.006;5.924;2022-08-03T08:16:32;100774.34;;;25.05;56.24
73842;BME280;62184;52.006;5.924;2022-08-03T08:18:58;100780.09;;;25.23;55.33
73842;BME280;62184;52.006;5.924;2022-08-03T08:21:24;100783.31;;;25.28;55.02
73842;BME280;62184;52.006;5.924;2022-08-03T08:23:53;100783.03;;;25.31;54.27
73842;BME280;62184;52.006;5.924;2022-08-03T08:26:20;100784.78;;;25.32;54.87
73842;BME280;62184;52.006;5.924;2022-08-03T08:28:46;100781.81;;;25.45;54.62
73842;BME280;62184;52.006;5.924;2022-08-03T08:31:13;100787.34;;;25.55;53.94
73842;BME280;62184;52.006;5.924;2022-08-03T08:33:39;100782.06;;;25.63;53.49
73842;BME280;62184;52.006;5.924;2022-08-03T08:36:06;100784.59;;;25.75;53.33
73842;BME280;62184;52.006;5.924;2022-08-03T08:38:34;100773.16;;;25.91;53.06
73842;BME280;62184;52.006;5.924;2022-08-03T08:41:03;100778.69;;;26.01;52.67
73842;BME280;62184;52.006;5.924;2022-08-03T08:43:29;100780.03;;;26.16;52.62
73842;BME280;62184;52.006;5.924;2022-08-03T08:45:57;100773.13;;;26.31;51.97
73842;BME280;62184;52.006;5.924;2022-08-03T08:48:25;100766.41;;;26.45;51.45
73842;BME280;62184;52.006;5.924;2022-08-03T08:50:55;100776.25;;;26.57;51.35
73842;BME280;62184;52.006;5.924;2022-08-03T08:53:25;100777.13;;;26.67;51.21
73842;BME280;62184;52.006;5.924;2022-08-03T08:55:54;100774.41;;;26.77;50.43
73842;BME280;62184;52.006;5.924;2022-08-03T08:58:29;100784.91;;;26.81;49.92
73842;BME280;62184;52.006;5.924;2022-08-03T09:00:59;100786.38;;;26.85;49.59
73842;BME280;62184;52.006;5.924;2022-08-03T09:03:26;100792.72;;;26.86;48.94
73842;BME280;62184;52.006;5.924;2022-08-03T09:05:52;100789.53;;;26.90;49.56
73842;BME280;62184;52.006;5.924;2022-08-03T09:08:20;100787.53;;;27.02;48.80
73842;BME280;62184;52.006;5.924;2022-08-03T09:10:46;100773.63;;;27.13;48.74
73842;BME280;62184;52.006;5.924;2022-08-03T09:13:13;100782.19;;;27.20;47.97
73842;BME280;62184;52.006;5.924;2022-08-03T09:15:43;100777.72;;;27.19;47.97
73842;BME280;62184;52.006;5.924;2022-08-03T09:18:09;100774.66;;;27.22;48.27
73842;BME280;62184;52.006;5.924;2022-08-03T09:20:35;100778.84;;;27.36;48.17
73842;BME280;62184;52.006;5.924;2022-08-03T09:23:04;100780.81;;;27.53;47.46
73842;BME280;62184;52.006;5.924;2022-08-03T09:25:33;100776.59;;;27.68;47.56
73842;BME280;62184;52.006;5.924;2022-08-03T09:28:09;100774.72;;;27.78;46.26
73842;BME280;62184;52.006;5.924;2022-08-03T09:30:38;100777.72;;;27.85;46.68
73842;BME280;62184;52.006;5.924;2022-08-03T09:33:10;100775.78;;;27.95;46.13
73842;BME280;62184;52.006;5.924;2022-08-03T09:35:41;100780.19;;;28.05;45.82
73842;BME280;62184;52.006;5.924;2022-08-03T09:38:10;100772.06;;;28.14;45.51
73842;BME280;62184;52.006;5.924;2022-08-03T09:40:39;100783.00;;;28.23;45.38
73842;BME280;62184;52.006;5.924;2022-08-03T09:43:05;100770.03;;;28.43;45.63
73842;BME280;62184;52.006;5.924;2022-08-03T09:45:32;100779.13;;;28.71;44.95
73842;BME280;62184;52.006;5.924;2022-08-03T09:48:21;100775.88;;;28.93;43.67
73842;BME280;62184;52.006;5.924;2022-08-03T09:50:49;100778.25;;;29.06;44.24
73842;BME280;62184;52.006;5.924;2022-08-03T09:53:16;100777.06;;;29.08;43.73
73842;BME280;62184;52.006;5.924;2022-08-03T09:55:49;100785.38;;;29.16;43.75
73842;BME280;62184;52.006;5.924;2022-08-03T09:58:17;100788.81;;;29.36;43.82
73842;BME280;62184;52.006;5.924;2022-08-03T10:00:56;100783.31;;;29.54;43.33
73842;BME280;62184;52.006;5.924;2022-08-03T10:03:28;100784.22;;;29.63;42.02
73842;BME280;62184;52.006;5.924;2022-08-03T10:05:56;100780.56;;;29.54;42.61
73842;BME280;62184;52.006;5.924;2022-08-03T10:08:22;100789.50;;;29.56;43.08
73842;BME280;62184;52.006;5.924;2022-08-03T10:10:50;100791.28;;;29.65;43.16
73842;BME280;62184;52.006;5.924;2022-08-03T10:13:18;100788.56;;;29.73;42.40
73842;BME280;62184;52.006;5.924;2022-08-03T10:15:46;100789.63;;;29.80;42.80
73842;BME280;62184;52.006;5.924;2022-08-03T10:18:13;100783.16;;;29.89;42.61
73842;BME280;62184;52.006;5.924;2022-08-03T10:20:45;100788.22;;;30.02;41.95
73842;BME280;62184;52.006;5.924;2022-08-03T10:23:17;100781.91;;;30.10;42.49
73842;BME280;62184;52.006;5.924;2022-08-03T10:25:47;100780.28;;;30.33;41.92
73842;BME280;62184;52.006;5.924;2022-08-03T10:28:18;100777.22;;;30.44;41.62
73842;BME280;62184;52.006;5.924;2022-08-03T10:30:47;100770.84;;;30.52;41.54
73842;BME280;62184;52.006;5.924;2022-08-03T10:33:19;100770.06;;;30.67;40.33
73842;BME280;62184;52.006;5.924;2022-08-03T10:35:51;100771.44;;;30.63;39.62
73842;BME280;62184;52.006;5.924;2022-08-03T10:38:23;100761.38;;;30.54;39.77
73842;BME280;62184;52.006;5.924;2022-08-03T10:40:55;100761.03;;;30.57;40.23
73842;BME280;62184;52.006;5.924;2022-08-03T10:43:27;100764.22;;;30.71;39.75
73842;BME280;62184;52.006;5.924;2022-08-03T10:46:02;100756.81;;;30.87;40.06
73842;BME280;62184;52.006;5.924;2022-08-03T10:48:31;100760.44;;;31.12;39.58
73842;BME280;62184;52.006;5.924;2022-08-03T10:51:03;100762.19;;;31.29;38.86
73842;BME280;62184;52.006;5.924;2022-08-03T10:53:34;100750.09;;;31.38;38.38
73842;BME280;62184;52.006;5.924;2022-08-03T10:56:01;100751.59;;;31.49;38.52
73842;BME280;62184;52.006;5.924;2022-08-03T10:58:46;100750.41;;;31.52;36.75
73842;BME280;62184;52.006;5.924;2022-08-03T11:01:16;100746.06;;;31.49;38.09
73842;BME280;62184;52.006;5.924;2022-08-03T11:04:14;100747.78;;;31.58;36.69
73842;BME280;62184;52.006;5.924;2022-08-03T11:06:45;100746.25;;;31.48;37.40
73842;BME280;62184;52.006;5.924;2022-08-03T11:09:16;100731.75;;;31.54;37.56
73842;BME280;62184;52.006;5.924;2022-08-03T11:11:44;100731.38;;;31.65;37.37
73842;BME280;62184;52.006;5.924;2022-08-03T11:14:15;100735.19;;;31.72;37.04
73842;BME280;62184;52.006;5.924;2022-08-03T11:16:45;100722.56;;;31.77;36.63
73842;BME280;62184;52.006;5.924;2022-08-03T11:19:14;100727.91;;;31.79;36.95
73842;BME280;62184;52.006;5.924;2022-08-03T11:21:55;100727.84;;;31.95;35.27
73842;BME280;62184;52.006;5.924;2022-08-03T11:27:23;100731.63;;;32.02;35.88
73842;BME280;62184;52.006;5.924;2022-08-03T11:29:57;100733.47;;;32.10;35.52
73842;BME280;62184;52.006;5.924;2022-08-03T11:32:53;100733.06;;;32.29;34.87
73842;BME280;62184;52.006;5.924;2022-08-03T11:35:24;100726.16;;;32.25;35.08
73842;BME280;62184;52.006;5.924;2022-08-03T11:38:06;100729.25;;;32.30;34.53
73842;BME280;62184;52.006;5.924;2022-08-03T11:40:35;100727.09;;;32.40;35.13
73842;BME280;62184;52.006;5.924;2022-08-03T11:43:08;100734.47;;;32.48;34.03
73842;BME280;62184;52.006;5.924;2022-08-03T11:45:56;100727.56;;;32.52;34.49
73842;BME280;62184;52.006;5.924;2022-08-03T11:48:26;100728.53;;;32.59;34.43
73842;BME280;62184;52.006;5.924;2022-08-03T11:50:58;100740.28;;;32.61;34.16
73842;BME280;62184;52.006;5.924;2022-08-03T11:53:28;100739.13;;;32.56;33.81
73842;BME280;62184;52.006;5.924;2022-08-03T11:55:58;100740.97;;;32.63;33.16
73842;BME280;62184;52.006;5.924;2022-08-03T11:58:26;100739.94;;;32.64;32.42
73842;BME280;62184;52.006;5.924;2022-08-03T12:01:02;100749.91;;;32.65;31.55
73842;BME280;62184;52.006;5.924;2022-08-03T12:03:32;100746.13;;;32.66;32.40
73842;BME280;62184;52.006;5.924;2022-08-03T12:05:59;100733.31;;;32.65;32.50
73842;BME280;62184;52.006;5.924;2022-08-03T12:08:32;100736.94;;;32.74;31.83
73842;BME280;62184;52.006;5.924;2022-08-03T12:11:01;100742.09;;;32.77;32.40
73842;BME280;62184;52.006;5.924;2022-08-03T12:13:35;100736.56;;;32.77;32.82
73842;BME280;62184;52.006;5.924;2022-08-03T12:16:04;100734.34;;;32.95;32.21
73842;BME280;62184;52.006;5.924;2022-08-03T12:18:30;100737.22;;;33.02;32.10
73842;BME280;62184;52.006;5.924;2022-08-03T12:21:04;100736.94;;;32.97;31.39
73842;BME280;62184;52.006;5.924;2022-08-03T12:23:35;100727.59;;;32.98;31.36
73842;BME280;62184;52.006;5.924;2022-08-03T12:26:04;100731.41;;;32.97;32.00
73842;BME280;62184;52.006;5.924;2022-08-03T12:28:32;100736.88;;;33.05;32.22
73842;BME280;62184;52.006;5.924;2022-08-03T12:31:01;100727.44;;;33.14;31.38
73842;BME280;62184;52.006;5.924;2022-08-03T12:33:29;100727.22;;;33.15;31.48
73842;BME280;62184;52.006;5.924;2022-08-03T12:36:04;100737.72;;;33.28;31.28
73842;BME280;62184;52.006;5.924;2022-08-03T12:38:36;100730.38;;;33.35;30.99
73842;BME280;62184;52.006;5.924;2022-08-03T12:41:06;100716.63;;;33.42;31.23
73842;BME280;62184;52.006;5.924;2022-08-03T12:43:34;100732.59;;;33.54;31.00
73842;BME280;62184;52.006;5.924;2022-08-03T12:46:10;100732.59;;;33.69;30.26
73842;BME280;62184;52.006;5.924;2022-08-03T12:49:00;100736.03;;;33.71;29.36
73842;BME280;62184;52.006;5.924;2022-08-03T12:51:54;100733.91;;;33.58;29.37
73842;BME280;62184;52.006;5.924;2022-08-03T12:54:26;100739.38;;;33.52;29.77
73842;BME280;62184;52.006;5.924;2022-08-03T12:56:57;100738.59;;;33.43;29.60
73842;BME280;62184;52.006;5.924;2022-08-03T12:59:25;100741.63;;;33.34;30.12
73842;BME280;62184;52.006;5.924;2022-08-03T13:01:52;100737.13;;;33.33;30.20
73842;BME280;62184;52.006;5.924;2022-08-03T13:04:25;100725.69;;;33.36;30.43